WETTERDATEN

GESTERN
Time Temp. Taup. r.Fe. Windrich Windstärke Windböe Druck 1h Prec. 24h Prec.
00:04 7.8 3.7 75 270 0.3 1.4 1011.5 0.0000 0.0000
00:15 7.6 3.5 75 270 0.3 1.1 1011.6 0.0000 0.0000
00:25 7.5 3.4 75 270 0.3 1.1 1011.6 0.0000 0.0000
00:35 7.3 3.2 75 270 0.3 1.4 1011.6 0.0000 0.0000
00:46 7.2 3.3 76 270 0.3 1.1 1011.6 0.0000 0.0000
00:55 7.1 3.2 76 270 0.3 1.1 1011.6 0.0000 0.0000
01:05 6.9 3 76 270 0.3 1.1 1011.7 0.0000 0.0000
01:15 6.7 3 77 270 0.3 1.1 1011.7 0.0000 0.0000
01:26 6.6 2.9 77 270 0.3 1.1 1011.8 0.0000 0.0000
01:36 6.4 2.8 78 270 0.3 1.4 1011.8 0.0000 0.0000
01:45 6.2 2.7 78 270 0.3 1.1 1011.8 0.0000 0.0000
01:56 6.1 2.6 78 270 0.3 1.1 1011.8 0.0000 0.0000
02:06 6 2.6 79 270 0.3 1.1 1011.8 0.0000 0.0000
02:16 5.9 2.5 79 270 0.3 1.4 1011.8 0.0000 0.0000
02:25 5.8 2.4 79 255 0.8 1.4 1011.8 0.0000 0.0000
02:36 5.6 2.3 79 235 0.3 1.1 1011.9 0.0000 0.0000
02:46 5.4 2.2 80 237 0.3 1.1 1011.9 0.0000 0.0000
02:56 5.2 2 80 270 0.3 1.4 1011.9 0.0000 0.0000
03:06 5.1 1.9 80 315 0.3 1.1 1012 0.0000 0.0000
03:16 4.9 1.7 80 270 0.3 1.1 1011.9 0.0000 0.0000
03:26 4.8 1.8 81 270 0.3 1.1 1012 0.0000 0.0000
03:36 4.6 1.6 81 270 0.3 1.1 1012.2 0.0000 0.0000
03:47 4.5 1.7 82 270 0.3 1.4 1012.5 0.0000 0.0000
03:57 4.4 1.8 83 354 0.3 1.4 1012.5 0.0000 0.0000
04:06 4 1.4 83 354 0.3 1.4 1012.4 0.0000 0.0000
04:17 3.9 1.4 84 315 0.3 1.1 1012.5 0.0000 0.0000
04:27 3.8 1.3 84 270 0.3 1.4 1012.8 0.0000 0.0000
04:37 3.5 1.1 84 21 0.8 1.4 1012.9 0.0000 0.0000
04:47 3.3 1 85 18 0.3 1.9 1012.9 0.0000 0.0000
04:57 3.3 1.2 86 270 0.3 1.1 1013 0.0000 0.0000
05:07 3.2 1.1 86 270 0.3 1.9 1013.1 0.0000 0.0000
05:17 2.9 0.6 85 220 0.8 1.4 1013.3 0.0000 0.0000
05:27 2.7 0.6 86 357 0.8 1.4 1013.5 0.0000 0.0000
05:38 2.6 0.7 87 135 0.3 1.4 1013.6 0.0000 0.0000
05:47 2.6 0.8 88 45 0.8 1.4 1013.8 0.0000 0.0000
05:57 2.6 0.8 88 228 0.3 1.4 1013.7 0.0000 0.0000
06:08 2.7 1.1 89 308 0.8 1.9 1013.8 0.0000 0.0000
06:18 2.8 1 88 213 0.3 1.4 1013.8 0.0000 0.0000
06:28 3.2 1.7 90 270 0.3 1.4 1014 0.0000 0.0000
06:38 3.7 2.4 91 270 0.8 1.4 1014.1 0.0000 0.0000
06:48 4.4 3.2 92 270 0.3 1.4 1014.1 0.0000 0.0000
06:58 4.9 3.9 93 343 0.8 1.4 1014.2 0.0000 0.0000
07:08 5.3 4 91 21 0.3 1.4 1014.2 0.0000 0.0000
07:19 5.6 4.1 90 30 0.3 1.4 1014.4 0.0000 0.0000
07:28 5.9 4.2 89 21 0.3 1.1 1014.6 0.0000 0.0000
07:38 6.3 4.8 90 26 0.3 1.1 1014.7 0.0000 0.0000
07:48 6.9 5.4 90 356 0.3 1.1 1014.6 0.0000 0.0000
07:59 7.6 6.1 90 90 0.8 1.4 1014.6 0.0000 0.0000
08:08 8.1 6.1 87 186 0.3 1.4 1014.6 0.0000 0.0000
08:11 8.3 6.3 87 194 0.8 2.2 1015.1 0.0000 0.0000
09:04 10.5 7.4 81 225 0.8 1.4 1015.1 0.0000 0.0000
09:14 10.8 7.5 80 195 0.8 1.9 1015.1 0.0000 0.0000
09:24 11.1 7.4 78 236 1.1 2.8 1015.3 0.0000 0.0000
09:34 11.5 7.8 78 231 1.1 2.2 1015.4 0.0000 0.0000
09:36 11.5 7.6 77 229 1.1 2.5 1015.4 0.0000 0.0000
10:04 12.4 8.1 75 210 0.8 2.2 1015.2 0.0000 0.0000
10:14 12.7 8 73 209 0.8 1.9 1015.4 0.0000 0.0000
10:25 12.7 8 73 202 0.8 1.9 1015.7 0.0000 0.0000
10:33 12.6 7.9 73 237 0.8 2.5 1015.8 0.0000 0.0000
10:44 12.6 7.9 73 240 0.8 2.5 1016 0.0000 0.0000
10:55 12.6 7.9 73 210 0.8 1.9 1016.1 0.0000 0.0000
11:05 12.8 8.1 73 203 0.8 3.6 1016.1 0.0000 0.0000
11:15 12.7 7.8 72 211 0.8 1.9 1016.3 0.0000 0.0000
11:35 12.7 7.8 72 225 1.1 2.5 1016.5 0.0000 0.0000
11:45 12.5 7.6 72 223 1.4 3.3 1016.6 0.0000 0.0000
11:55 12.5 7.8 73 227 1.1 2.2 1016.7 0.0000 0.0000
12:06 12.4 7.7 73 226 1.1 2.2 1016.8 0.0000 0.0000
12:15 12.3 7.6 73 225 1.1 2.8 1016.9 0.0000 0.0000
12:25 12 7.3 73 231 1.4 3.3 1017.1 0.0000 0.0000
12:35 11.6 6.9 73 212 1.1 3.9 1017.4 0.0000 0.0000
12:46 10.9 6.3 73 211 1.1 2.8 1017.8 0.0000 0.0000
12:56 10 5 71 218 1.9 4.7 1018.2 0.0000 0.0000
13:05 9.2 4.4 72 233 2.2 5 1018.4 0.0000 0.0000
13:16 8.5 3.9 73 236 1.9 4.4 1018.8 0.0000 0.0000
13:26 7.8 3.5 74 229 2.2 4.7 1019.2 0.0000 0.0000
13:36 7.1 3.2 76 231 2.2 4.7 1019.6 0.0000 0.0000
13:45 6.6 3.2 79 235 1.9 4.4 1019.9 0.3750 0.4000
13:56 6.2 3.2 81 222 1.4 2.5 1020.2 0.8750 0.9000
14:05 5.8 3 82 226 1.4 2.8 1020.5 1.2500 1.3000
14:15 5.4 2.7 83 229 1.4 2.8 1020.7 1.6250 1.6000
14:26 5.2 2.7 84 228 1.1 2.8 1021 2.0000 2.0000
14:36 5 2.9 86 206 1.1 1.9 1021.2 2.2500 2.4000
14:46 4.9 2.8 86 209 1.1 3.3 1021.3 2.1250 2.6000
14:56 4.8 2.7 86 215 1.4 2.2 1021.5 1.6250 2.8000
15:06 4.7 2.6 86 223 1.4 3.3 1021.7 1.5000 2.9000
15:16 4.6 2.5 86 230 1.4 3.3 1021.8 1.1250 3.0000
15:26 4.4 2.3 86 222 1.4 3.3 1021.9 0.8750 3.0000
15:37 4.4 2.4 87 232 1.9 5 1022 0.6250 3.1000
15:46 4.4 2.4 87 219 1.4 3.3 1022.1 0.5000 3.1000
15:56 4.4 2.6 88 227 1.4 2.8 1022.2 0.3750 3.3000
16:06 4.4 2.6 88 225 1.4 3.9 1022.3 0.3750 3.3000
16:17 4.4 2.6 88 216 1.4 2.5 1022.5 0.2500 3.3000
16:26 4.4 2.6 88 225 1.4 3.6 1022.6 0.3750 3.4000
16:36 4.3 2.5 88 226 1.9 3.6 1022.8 0.2500 3.4000
16:47 4.2 2.4 88 228 1.4 3.3 1023 0.2500 3.4000
16:57 4.2 2.6 89 215 1.1 2.2 1023.2 0.2500 3.5000
17:07 4.1 2.3 88 230 1.4 2.5 1023.3 0.2500 3.5000
17:17 4 2.2 88 233 1.4 2.5 1023.5 0.3750 3.6000
17:27 3.9 2.1 88 227 1.4 2.2 1023.6 0.3750 3.8000
17:37 3.9 2.3 89 225 1.1 2.5 1023.6 0.5000 3.9000
17:47 3.8 2.2 89 223 1.1 2.5 1023.8 0.3750 3.9000
17:58 3.7 2.1 89 225 1.1 3.3 1023.9 0.3750 3.9000
18:07 3.6 2 89 213 1.1 2.5 1024.1 0.5000 4.0000
18:17 3.6 2.1 90 219 1.1 2.5 1024.3 0.5000 4.3000
18:27 3.5 2 90 222 1.1 2.8 1024.4 0.6250 4.4000
18:38 3.4 1.9 90 215 0.8 2.5 1024.5 0.7500 4.6000
18:48 3.3 1.8 90 209 0.8 2.2 1024.7 0.7500 4.6000
18:57 3.2 1.9 91 199 0.8 1.4 1024.8 0.7500 4.8000
19:08 3.2 1.9 91 198 0.8 2.2 1024.9 0.7500 4.9000
19:18 3.2 1.9 91 203 0.8 1.9 1025 0.6250 4.9000
19:28 3.1 1.8 91 206 0.8 1.9 1025.2 0.5000 5.0000
19:38 3 1.7 91 204 0.8 2.2 1025.3 0.5000 5.1000
19:48 2.9 1.6 91 206 0.8 1.4 1025.4 0.5000 5.3000
19:58 2.9 1.6 91 199 0.8 2.2 1025.6 0.6250 5.4000
20:08 2.9 1.7 92 195 0.8 1.4 1025.7 0.6250 5.5000
20:19 2.8 1.6 92 201 0.8 1.9 1025.9 0.8750 5.8000
20:29 2.8 1.6 92 197 0.8 1.4 1026 0.8750 5.9000
20:38 2.8 1.6 92 198 0.8 1.1 1026.2 0.7500 6.0000
20:48 2.9 1.7 92 190 0.3 1.1 1026.4 0.7500 6.1000
20:59 2.9 1.7 92 350 0.3 1.4 1026.5 0.8750 6.4000
21:09 2.8 1.8 93 57 0.3 1.1 1026.6 1.0000 6.6000
21:18 2.6 1.6 93 57 0.8 1.1 1026.7 1.0000 6.9000
21:29 2.5 1.5 93 90 0.3 1.4 1026.7 1.2500 7.3000
21:39 2.5 1.6 94 50 0.3 1.1 1026.6 1.3750 7.4000
21:49 2.3 1.4 94 135 0.3 1.9 1026.7 1.2500 7.5000
21:59 2.3 1.4 94 45 0.3 1.1 1026.7 1.1250 7.6000
22:09 2.3 1.4 94 45 0.3 1.9 1026.7 0.8750 7.6000
22:19 2.2 1.5 95 225 0.3 1.1 1026.7 0.6250 7.8000
22:29 2.3 1.6 95 315 0.3 1.4 1026.7 0.5000 7.8000
22:40 2.3 1.6 95 135 0.3 1.1 1026.7 0.5000 7.9000
22:50 2.4 1.7 95 30 0.3 1.4 1026.7 0.3750 7.9000
22:59 2.5 1.8 95 90 0.3 1.4 1026.7 0.3750 8.0000
23:09 2.5 1.8 95 183 0.3 1.4 1026.7 0.3750 8.0000
23:20 2.5 1.8 95 54 0.3 1.1 1026.7 0.3750 8.1000
23:30 2.5 1.8 95 135 0.3 1.4 1026.7 0.3750 8.1000
23:40 2.5 1.8 95 270 0.3 1.4 1026.7 0.2500 8.1000
23:50 2.5 1.8 95 180 0.3 1.4 1026.7 0.2500 8.1000

TAGESSTATISTIK

2021-04-12
TEMPERATUR
MITTEL
5.6
MAXIMUM
12.8
11:05
MINIMUM
2.2
22:19
LUFTDRUCK
MITTEL
1018.7
MAXIMUM
1026.7
21:18
MINIMUM
1011.5
00:04
TAUPUNKT
MITTEL
3.2
MAXIMUM
8.1
10:04
MINIMUM
0.6
05:17
FEUCHTIGKEIT
MITTEL
85
MAXIMUM
95
22:19
MINIMUM
71
12:56
WINDSTÄRKE
MITTEL
0.8
MAXIMUM
2.2
13:05
WINDBÖE
MITTEL
2.0
MAXIMUM
5.0
13:05
WINDRICHTUNG
VORHERRSCHENDE
SW
45.3%
N
7.3
NO
7.3
O
2.2
SO
2.9
S
12.4
SW
45.3
W
19.7
NW
2.9
NIEDERSCHLAG
REGEN STUNDE
2.3
REGEN TAG
8.1
TEMPERATUR (°C)
MINIMUM
2.2
MAXIMUM
12.8
MITTEL
5.6
LUFTDRUCK (hpa)
MINIMUM
1011.5
MAXIMUM
1026.7
MITTEL
1018.7
MESSGERÄT